Pagina principale
METAR-TAF:

METAR-TAF

Aeroporti :

Elsenborn

Bütgenbach, Belgio

latitudine: 50-28N, longitudine: 006-11E, altezza: 564 m

Osservazione

Il bollettino è stato emesso 30 minuti fa, alle 07:55 UTC
Vento 4 kt da sud/sud-ovest
Temperature 1°C
Umidità 100%
Pressione 1009 hPa
Visibilità: 4400 m
pioggia debole

METAR: EBLB 110755Z AUTO 21004KT 4400 -RA OVC002/// 01/01 Q1009 AMB

Ora: 09:25 (08:25 UTC)


TAF: mancante

Osservazioni e previsioni meteorologiche di più di 4000 aeroporti (messaggi METAR e TAF).

Le stazioni disponibili sono rappresentate dai dischi gialli e rossi sulla carta.

Puntare il mouse per vedere il nome della stazione.

Clicca sopra per visualizzare le osservazioni e previsioni meteorologiche.

Per cambiare la mappa : fare clic sui pulsanti verdi con una croce nera per ingrandire, il pulsante verde con un trattino per diminuire, o sulla freccia verde per le mappe adiacenti.


METAR-TAF: